Time;durP1;ratioP1;P1;durP2;ratioP2;P2;SDS_P1;SDS_P2;PMS_P1;PMS_P2;Temp;Humidity;BMP_temperature;BMP_pressure;BME280_temperature;BME280_humidity;BME280_pressure;Samples;Min_cycle;Max_cycle;Signal;HPM_P1;HPM_P2
2021/10/16 00:01:49;;;;;;;37.85;26.50;;;;;;;13.83;78.47;101602.56;5113495;28;20522;-61
2021/10/16 00:04:17;;;;;;;15.75;9.10;;;;;;;13.83;77.58;101597.03;5115287;28;20070;-62
2021/10/16 00:06:44;;;;;;;13.60;7.65;;;;;;;13.88;77.29;101593.34;5115235;28;20060;-61
2021/10/16 00:09:11;;;;;;;12.35;7.75;;;;;;;13.86;76.80;101596.41;5130155;28;20510;-62
2021/10/16 00:11:39;;;;;;;14.02;7.57;;;;;;;13.44;78.97;101594.09;5115327;28;20055;-62
2021/10/16 00:14:06;;;;;;;15.90;8.63;;;;;;;13.32;79.23;101591.84;5114667;28;20066;-61
2021/10/16 00:16:33;;;;;;;12.68;7.75;;;;;;;13.58;78.60;101592.91;5113772;28;20616;-62
2021/10/16 00:19:01;;;;;;;12.50;7.32;;;;;;;13.40;78.46;101593.91;5097217;28;20044;-62
2021/10/16 00:21:28;;;;;;;13.10;7.72;;;;;;;13.28;79.13;101598.34;5115318;28;20056;-61
2021/10/16 00:23:56;;;;;;;13.63;7.68;;;;;;;13.09;79.52;101590.16;5117082;28;20043;-63
2021/10/16 00:26:23;;;;;;;11.75;7.10;;;;;;;13.27;79.60;101597.50;5119189;28;20052;-62
2021/10/16 00:28:50;;;;;;;14.60;7.03;;;;;;;13.38;78.67;101595.34;5117405;28;20391;-62
2021/10/16 00:31:17;;;;;;;13.32;7.35;;;;;;;13.61;78.18;101602.56;5117236;28;20406;-64
2021/10/16 00:33:45;;;;;;;12.20;7.30;;;;;;;13.20;79.19;101602.63;5117437;28;20055;-63
2021/10/16 00:36:12;;;;;;;11.77;6.75;;;;;;;13.50;78.18;101604.75;5099964;28;20059;-60
2021/10/16 00:38:40;;;;;;;16.30;6.97;;;;;;;13.20;79.05;101591.56;5114695;28;20055;-62
2021/10/16 00:41:09;;;;;;;10.30;6.07;;;;;;;12.95;80.34;101607.84;5098319;28;20055;-63
2021/10/16 00:43:36;;;;;;;12.30;7.57;;;;;;;13.07;79.34;101600.72;5098134;28;20074;-61
2021/10/16 00:46:03;;;;;;;14.45;7.32;;;;;;;13.01;79.69;101603.84;5098453;28;20523;-62
2021/10/16 00:48:31;;;;;;;14.75;7.47;;;;;;;13.03;79.65;101598.88;5096866;28;20056;-61
2021/10/16 00:50:58;;;;;;;12.15;7.32;;;;;;;13.12;79.66;101602.56;5097854;28;20056;-62
2021/10/16 00:53:25;;;;;;;18.83;7.60;;;;;;;13.05;80.40;101602.16;5097999;28;20060;-63
2021/10/16 00:55:54;;;;;;;11.50;7.18;;;;;;;12.93;80.78;101604.56;5098079;28;20050;-63
2021/10/16 00:58:23;;;;;;;11.40;7.63;;;;;;;12.94;80.05;101595.13;5096843;28;20155;-63
2021/10/16 01:00:51;;;;;;;12.52;7.20;;;;;;;12.64;81.35;101595.78;5097369;28;20052;-63
2021/10/16 01:03:20;;;;;;;13.27;7.53;;;;;;;12.46;82.19;101603.00;5098030;28;20063;-62
2021/10/16 01:05:48;;;;;;;11.37;7.30;;;;;;;12.67;82.24;101601.50;5096836;28;20044;-62
2021/10/16 01:08:15;;;;;;;12.25;7.60;;;;;;;12.82;80.71;101595.66;5062484;28;20048;-62
2021/10/16 01:10:42;;;;;;;12.25;7.43;;;;;;;12.63;81.70;101600.47;5078799;28;20070;-61
2021/10/16 01:13:10;;;;;;;11.82;7.68;;;;;;;12.70;81.45;101600.06;5096491;28;20824;-61
2021/10/16 01:15:37;;;;;;;12.80;8.02;;;;;;;12.57;82.27;101601.69;5092110;28;20048;-61
2021/10/16 01:18:05;;;;;;;15.07;8.50;;;;;;;12.40;82.67;101598.69;5076126;28;20431;-63
2021/10/16 01:20:34;;;;;;;13.98;7.68;;;;;;;12.24;83.89;101594.56;5092551;28;20067;-62
2021/10/16 01:23:01;;;;;;;16.60;8.65;;;;;;;12.25;83.86;101593.44;5075852;28;20048;-62
2021/10/16 01:25:28;;;;;;;16.23;8.45;;;;;;;12.22;84.12;101594.06;5075993;28;20052;-63
2021/10/16 01:27:56;;;;;;;13.55;8.18;;;;;;;12.55;83.50;101583.78;5075848;28;20383;-62
2021/10/16 01:30:24;;;;;;;12.55;7.30;;;;;;;12.78;81.67;101580.81;5075526;28;20040;-63
2021/10/16 01:32:51;;;;;;;12.13;7.55;;;;;;;13.08;80.77;101580.22;5092311;28;20703;-63
2021/10/16 01:35:19;;;;;;;13.32;7.97;;;;;;;13.22;79.09;101572.72;5076517;28;20837;-62
2021/10/16 01:37:48;;;;;;;14.15;8.13;;;;;;;13.14;79.08;101567.94;5092357;28;20464;-62
2021/10/16 01:40:20;;;;;;;12.30;7.78;;;;;;;12.86;80.11;101571.81;5111889;28;20062;-62
2021/10/16 01:42:50;;;;;;;12.07;7.82;;;;;;;12.90;79.87;101572.81;5133383;27;20055;-61
2021/10/16 01:45:20;;;;;;;14.48;7.68;;;;;;;12.94;79.77;101578.56;5099697;28;20039;-63
2021/10/16 01:47:53;;;;;;;10.60;7.40;;;;;;;13.01;79.55;101571.50;5116095;28;20058;-61
2021/10/16 01:50:40;;;;;;;14.18;7.72;;;;;;;13.03;79.06;101573.97;5101036;28;20063;-62
2021/10/16 01:53:26;;;;;;;15.00;8.32;;;;;;;12.86;79.78;101574.59;5101378;28;20055;-62
2021/10/16 01:56:03;;;;;;;12.45;7.43;;;;;;;12.98;79.81;101566.59;5115764;28;20059;-62
2021/10/16 01:58:36;;;;;;;13.23;7.68;;;;;;;12.92;79.61;101567.81;5114910;28;20052;-62
2021/10/16 02:01:10;;;;;;;14.60;7.82;;;;;;;13.01;79.04;101565.13;5114836;28;20050;-62
2021/10/16 02:03:39;;;;;;;13.20;7.85;;;;;;;13.26;78.23;101564.63;5115771;28;20058;-61
2021/10/16 02:06:16;;;;;;;13.80;8.00;;;;;;;12.68;79.91;101564.44;5115288;28;20070;-63
2021/10/16 02:08:48;;;;;;;13.40;7.97;;;;;;;12.34;81.71;101561.25;5132122;27;20048;-61
2021/10/16 02:11:15;;;;;;;13.82;7.50;;;;;;;12.09;82.75;101564.44;5115456;28;20063;-67
2021/10/16 02:13:55;;;;;;;17.33;8.38;;;;;;;12.09;83.18;101558.94;5115649;28;20137;-65
2021/10/16 02:16:24;;;;;;;14.00;8.05;;;;;;;12.31;82.77;101559.91;5132601;27;20395;-62
2021/10/16 02:18:58;;;;;;;14.15;7.63;;;;;;;12.21;82.53;101562.84;5099492;28;20043;-62
2021/10/16 02:21:26;;;;;;;15.25;8.23;;;;;;;12.20;82.79;101561.19;5115185;28;20048;-62
2021/10/16 02:23:56;;;;;;;14.02;7.93;;;;;;;12.12;83.18;101558.31;5115509;28;20533;-61
2021/10/16 02:26:27;;;;;;;15.38;7.75;;;;;;;12.47;82.11;101546.59;5115321;28;20071;-62
2021/10/16 02:28:55;;;;;;;14.00;7.88;;;;;;;12.45;81.17;101546.09;5114939;28;20074;-61
2021/10/16 02:31:25;;;;;;;14.63;8.05;;;;;;;12.61;81.20;101554.91;5114901;28;20051;-62
2021/10/16 02:33:55;;;;;;;;;;;;;;;12.66;80.73;101550.09;5115767;28;20162;-63
2021/10/16 02:36:26;;;;;;;15.80;8.25;;;;;;;12.75;79.91;101558.50;5115130;28;19920;-62
2021/10/16 02:38:54;;;;;;;12.88;8.10;;;;;;;12.65;80.45;101548.47;5110890;28;20106;-63
2021/10/16 02:41:21;;;;;;;13.82;7.13;;;;;;;12.88;79.64;101541.91;5094382;28;20502;-62
2021/10/16 02:43:48;;;;;;;19.45;8.05;;;;;;;12.81;78.65;101541.50;5094401;28;20075;-62
2021/10/16 02:46:21;;;;;;;10.02;6.78;;;;;;;12.89;78.59;101549.06;5093730;28;20106;-62
2021/10/16 02:48:48;;;;;;;11.48;7.00;;;;;;;12.77;78.44;101550.72;5094491;28;20119;-64
2021/10/16 02:51:16;;;;;;;14.35;7.50;;;;;;;12.66;79.27;101552.06;5077583;28;20048;-61
2021/10/16 02:53:44;;;;;;;16.02;7.85;;;;;;;12.57;79.24;101551.13;5076868;28;20062;-62
2021/10/16 02:56:13;;;;;;;11.07;7.20;;;;;;;12.46;80.20;101548.53;5094368;28;20059;-61
2021/10/16 02:58:41;;;;;;;15.95;7.30;;;;;;;12.22;80.85;101550.66;5094221;28;20294;-62
2021/10/16 03:01:10;;;;;;;11.80;7.55;;;;;;;12.55;80.79;101551.44;5110852;28;20059;-62
2021/10/16 03:03:38;;;;;;;14.65;7.97;;;;;;;12.52;79.78;101545.72;5094007;28;20063;-62
2021/10/16 03:06:06;;;;;;;15.93;6.88;;;;;;;12.74;78.92;101541.09;5094322;28;20059;-62
2021/10/16 03:08:35;;;;;;;13.98;7.30;;;;;;;12.31;79.99;101546.09;5077523;28;20052;-62
2021/10/16 03:11:09;;;;;;;14.85;7.07;;;;;;;12.67;79.11;101543.47;5093350;28;20048;-61
2021/10/16 03:13:39;;;;;;;15.85;7.72;;;;;;;12.55;78.67;101551.44;5093536;28;20403;-62
2021/10/16 03:16:10;;;;;;;11.73;6.75;;;;;;;12.65;78.74;101536.59;5073506;28;20052;-65
2021/10/16 03:18:40;;;;;;;11.25;7.03;;;;;;;12.91;77.93;101543.22;5075016;28;20059;-62
2021/10/16 03:21:08;;;;;;;14.80;6.68;;;;;;;12.85;77.26;101536.97;5073639;28;20067;-62
2021/10/16 03:23:36;;;;;;;11.90;6.65;;;;;;;12.99;77.16;101542.53;5090482;28;20412;-62
2021/10/16 03:26:03;;;;;;;13.57;7.20;;;;;;;13.15;76.12;101543.84;5073768;28;20044;-61
2021/10/16 03:28:31;;;;;;;13.82;7.28;;;;;;;12.96;76.25;101543.13;5090379;28;20052;-63
2021/10/16 03:30:58;;;;;;;11.13;7.45;;;;;;;13.05;76.56;101539.34;5090249;28;20056;-62
2021/10/16 03:33:25;;;;;;;12.82;6.97;;;;;;;13.01;76.04;101541.06;5073571;28;20064;-62
2021/10/16 03:35:53;;;;;;;13.43;7.70;;;;;;;12.71;77.77;101544.47;5073832;28;20040;-63
2021/10/16 03:38:21;;;;;;;12.38;7.85;;;;;;;12.72;77.93;101548.06;5073674;28;20059;-63
2021/10/16 03:40:48;;;;;;;15.20;7.20;;;;;;;13.10;76.78;101536.47;5115123;28;20075;-64
2021/10/16 03:43:15;;;;;;;12.57;7.13;;;;;;;13.15;75.46;101535.53;5114440;28;20043;-64
2021/10/16 03:45:44;;;;;;;14.43;7.07;;;;;;;12.97;76.13;101542.81;5114048;28;20048;-62
2021/10/16 03:48:13;;;;;;;15.25;7.13;;;;;;;13.11;75.73;101545.59;5115103;28;20058;-62
2021/10/16 03:50:40;;;;;;;13.90;7.32;;;;;;;13.01;75.71;101540.25;5113765;28;20048;-64
2021/10/16 03:53:07;;;;;;;13.70;7.65;;;;;;;13.12;75.44;101538.94;5114011;28;20055;-62
2021/10/16 03:55:35;;;;;;;12.73;6.97;;;;;;;13.08;75.21;101535.13;5114320;28;20051;-62
2021/10/16 03:58:02;;;;;;;13.35;6.97;;;;;;;13.16;74.92;101532.44;5116294;28;20052;-62
2021/10/16 04:00:30;;;;;;;14.93;7.38;;;;;;;13.18;74.84;101530.19;5117951;28;20052;-61
2021/10/16 04:03:04;;;;;;;11.07;6.37;;;;;;;13.00;75.09;101531.16;5118033;28;20047;-62
2021/10/16 04:05:33;;;;;;;13.35;6.68;;;;;;;12.92;76.09;101537.38;5118141;28;20062;-63
2021/10/16 04:08:02;;;;;;;13.48;7.55;;;;;;;12.73;76.56;101536.69;5117705;28;20061;-63
2021/10/16 04:10:32;;;;;;;11.88;7.63;;;;;;;12.57;77.89;101540.06;5117802;28;20051;-62
2021/10/16 04:13:00;;;;;;;12.45;6.82;;;;;;;12.73;77.34;101547.75;5134865;27;20047;-62
2021/10/16 04:15:28;;;;;;;12.40;7.43;;;;;;;12.79;77.00;101543.75;5099897;28;20055;-62
2021/10/16 04:17:55;;;;;;;12.27;7.72;;;;;;;12.67;77.54;101548.16;5117445;28;20055;-62
2021/10/16 04:20:22;;;;;;;14.48;7.60;;;;;;;12.65;77.51;101542.13;5117609;28;20063;-61
2021/10/16 04:22:52;;;;;;;;;;;;;;;12.71;77.59;101547.22;5117977;28;20521;-62
2021/10/16 04:25:20;;;;;;;18.65;9.30;;;;;;;12.26;79.28;101546.19;5119053;28;19919;-62
2021/10/16 04:27:48;;;;;;;15.93;8.48;;;;;;;12.33;79.53;101546.59;5119017;28;20043;-62
2021/10/16 04:30:25;;;;;;;16.58;7.90;;;;;;;12.56;78.96;101550.31;5134273;27;20134;-62
2021/10/16 04:32:53;;;;;;;15.25;8.75;;;;;;;12.41;78.82;101548.66;5117457;28;20055;-63
2021/10/16 04:35:20;;;;;;;15.73;8.05;;;;;;;12.52;78.76;101556.75;5117126;28;20056;-62
2021/10/16 04:37:48;;;;;;;13.02;7.82;;;;;;;12.60;78.58;101551.34;5117635;28;20070;-62
2021/10/16 04:40:22;;;;;;;15.18;8.38;;;;;;;12.74;77.80;101552.16;5119054;27;20051;-62
2021/10/16 04:42:50;;;;;;;14.63;8.52;;;;;;;12.69;77.52;101548.69;5098056;28;20048;-62
2021/10/16 04:45:18;;;;;;;11.80;7.97;;;;;;;12.56;78.23;101555.00;5079779;28;20071;-62
2021/10/16 04:47:46;;;;;;;14.93;7.45;;;;;;;12.66;78.01;101555.63;5080326;28;20048;-62
2021/10/16 04:50:14;;;;;;;14.52;9.00;;;;;;;12.46;77.96;101556.03;5096681;28;20044;-64
2021/10/16 04:52:45;;;;;;;14.95;8.73;;;;;;;12.50;78.10;101559.00;5092101;28;20435;-63
2021/10/16 04:55:23;;;;;;;14.30;8.75;;;;;;;12.28;79.14;101566.03;5075779;28;20052;-61
2021/10/16 04:57:51;;;;;;;17.17;8.98;;;;;;;12.22;79.20;101561.72;5076498;28;20048;-61
2021/10/16 05:00:22;;;;;;;;;;;;;;;12.13;79.75;101573.78;5076600;28;20403;-61
2021/10/16 05:02:49;;;;;;;15.57;8.48;;;;;;;12.36;79.47;101572.81;5092830;28;19935;-63
2021/10/16 05:05:16;;;;;;;15.25;8.90;;;;;;;12.53;78.37;101564.75;5076256;28;20056;-62
2021/10/16 05:07:43;;;;;;;14.30;7.93;;;;;;;12.50;78.07;101559.81;5077337;28;20488;-62
2021/10/16 05:10:11;;;;;;;13.70;7.82;;;;;;;12.43;78.83;101562.97;5091833;28;20530;-62
2021/10/16 05:12:39;;;;;;;13.85;8.25;;;;;;;12.63;77.52;101567.31;5075874;28;20052;-63
2021/10/16 05:15:07;;;;;;;14.30;8.55;;;;;;;12.62;78.00;101571.22;5092669;28;20052;-62
2021/10/16 05:17:37;;;;;;;13.27;8.20;;;;;;;12.45;78.03;101571.78;5075949;28;20401;-63
2021/10/16 05:20:11;;;;;;;15.05;8.10;;;;;;;12.45;78.52;101574.56;5092861;28;20048;-63
2021/10/16 05:22:47;;;;;;;14.95;7.88;;;;;;;11.97;80.01;101580.69;5092676;28;20068;-62
2021/10/16 05:25:15;;;;;;;15.63;7.55;;;;;;;11.82;80.20;101587.25;5092656;28;20510;-61
2021/10/16 05:27:43;;;;;;;13.60;6.88;;;;;;;11.58;81.15;101594.78;5075927;28;20051;-62
2021/10/16 05:30:12;;;;;;;14.43;6.90;;;;;;;11.69;80.55;101590.78;5092639;28;20064;-62
2021/10/16 05:32:40;;;;;;;12.77;6.85;;;;;;;11.78;79.58;101585.41;5058182;28;20495;-61
2021/10/16 05:35:13;;;;;;;15.70;6.68;;;;;;;11.78;79.96;101583.47;5092531;28;20048;-61
2021/10/16 05:37:41;;;;;;;11.15;5.88;;;;;;;11.49;80.44;101581.97;5092554;28;20419;-61
2021/10/16 05:40:10;;;;;;;16.38;6.93;;;;;;;11.67;80.04;101587.50;5110552;28;20048;-62
2021/10/16 05:42:37;;;;;;;15.80;6.60;;;;;;;11.42;79.96;101581.53;5116057;28;20047;-62
2021/10/16 05:45:05;;;;;;;11.95;6.70;;;;;;;11.55;80.02;101581.59;5115632;28;20054;-62
2021/10/16 05:47:32;;;;;;;14.52;6.10;;;;;;;11.81;78.96;101584.81;5119927;27;20173;-62
2021/10/16 05:50:00;;;;;;;14.75;5.65;;;;;;;11.96;77.70;101585.38;5095540;28;20055;-62
2021/10/16 05:52:27;;;;;;;13.77;6.03;;;;;;;12.06;76.66;101584.41;5095573;28;20165;-63
2021/10/16 05:54:54;;;;;;;11.63;5.80;;;;;;;11.78;77.31;101575.19;5095050;28;20391;-63
2021/10/16 05:57:23;;;;;;;15.93;5.95;;;;;;;11.84;77.54;101584.19;5095534;28;20040;-63
2021/10/16 05:59:51;;;;;;;17.35;6.70;;;;;;;12.13;76.71;101585.63;5095687;28;20407;-65
2021/10/16 06:02:19;;;;;;;16.70;6.53;;;;;;;11.95;76.56;101585.69;5062861;28;20403;-64
2021/10/16 06:04:50;;;;;;;11.80;6.13;;;;;;;12.16;75.77;101590.56;5095330;28;20063;-63
2021/10/16 06:07:18;;;;;;;14.77;7.43;;;;;;;12.15;75.58;101588.91;5074940;28;20056;-63
2021/10/16 06:09:45;;;;;;;13.55;6.50;;;;;;;12.19;75.46;101589.94;5085656;28;20059;-62
2021/10/16 06:12:15;;;;;;;13.50;6.45;;;;;;;12.30;75.23;101580.38;5095752;28;20048;-63
2021/10/16 06:14:43;;;;;;;16.75;6.95;;;;;;;12.41;74.74;101583.75;5074193;28;20059;-63
2021/10/16 06:17:22;;;;;;;14.77;6.57;;;;;;;12.34;74.98;101577.81;5081321;28;20048;-63
2021/10/16 06:19:52;;;;;;;13.05;6.10;;;;;;;12.53;74.52;101580.50;5095410;28;20059;-62
2021/10/16 06:22:20;;;;;;;10.85;6.38;;;;;;;12.55;74.46;101578.25;5058042;28;20053;-62
2021/10/16 06:24:47;;;;;;;13.45;7.00;;;;;;;12.65;73.95;101586.34;5095905;28;20059;-63
2021/10/16 06:27:14;;;;;;;12.57;6.40;;;;;;;12.52;73.95;101585.19;5093678;28;20327;-63
2021/10/16 06:29:42;;;;;;;14.35;6.25;;;;;;;12.37;74.07;101589.09;5091989;28;20044;-63
2021/10/16 06:32:10;;;;;;;14.57;6.32;;;;;;;12.54;74.17;101585.72;5092826;28;20047;-62
2021/10/16 06:34:39;;;;;;;12.20;6.17;;;;;;;12.54;73.19;101595.94;5094693;28;20059;-63
2021/10/16 06:37:06;;;;;;;11.23;6.30;;;;;;;12.53;73.75;101592.38;5096003;28;20526;-62
2021/10/16 06:39:34;;;;;;;14.95;6.35;;;;;;;12.29;73.80;101600.81;5084816;28;20051;-64
2021/10/16 06:42:03;;;;;;;12.95;6.78;;;;;;;12.16;75.14;101592.50;5095204;28;20051;-64
2021/10/16 06:44:39;;;;;;;15.82;7.78;;;;;;;12.48;74.00;101593.28;5095781;28;20040;-63
2021/10/16 06:47:23;;;;;;;13.82;6.82;;;;;;;12.67;73.44;101589.63;5094149;28;20636;-63
2021/10/16 06:49:51;;;;;;;12.93;6.40;;;;;;;12.48;74.28;101600.78;5077783;28;20059;-63
2021/10/16 06:52:18;;;;;;;11.02;6.32;;;;;;;12.62;73.78;101596.09;5094182;28;20809;-63
2021/10/16 06:54:46;;;;;;;14.75;7.22;;;;;;;12.81;73.38;101587.69;5094569;28;20056;-63
2021/10/16 06:57:14;;;;;;;16.10;8.38;;;;;;;12.76;73.21;101594.13;5093827;28;20052;-62
2021/10/16 06:59:42;;;;;;;13.40;7.18;;;;;;;12.87;73.32;101591.97;5093822;28;20052;-62
2021/10/16 07:02:11;;;;;;;16.95;9.77;;;;;;;12.73;73.70;101588.38;5080911;28;20047;-63
2021/10/16 07:04:48;;;;;;;25.88;16.42;;;;;;;13.06;72.79;101585.25;5092637;28;20452;-62
2021/10/16 07:07:15;;;;;;;22.55;11.57;;;;;;;13.11;73.24;101595.41;5093496;28;20051;-63
2021/10/16 07:09:50;;;;;;;15.10;8.85;;;;;;;13.06;73.41;101599.06;5090584;28;20513;-62
2021/10/16 07:12:18;;;;;;;17.65;8.15;;;;;;;13.06;74.60;101595.47;5075577;28;20048;-63
2021/10/16 07:14:45;;;;;;;14.13;8.10;;;;;;;13.08;74.51;101601.53;5087879;28;20052;-61
2021/10/16 07:17:13;;;;;;;15.20;8.68;;;;;;;13.13;74.32;101610.53;5079891;28;20060;-63
2021/10/16 07:19:41;;;;;;;15.38;8.70;;;;;;;13.03;74.58;101612.69;5093580;28;20553;-63
2021/10/16 07:22:08;;;;;;;17.70;8.25;;;;;;;13.04;74.38;101615.16;5095496;28;20063;-62
2021/10/16 07:24:36;;;;;;;16.02;7.82;;;;;;;13.28;73.91;101607.47;5100526;28;20071;-62
2021/10/16 07:27:07;;;;;;;15.73;8.50;;;;;;;13.35;73.11;101607.84;5095068;28;20123;-63
2021/10/16 07:29:34;;;;;;;14.00;8.13;;;;;;;13.53;72.49;101612.41;5089728;28;20060;-64
2021/10/16 07:32:02;;;;;;;15.13;7.82;;;;;;;13.56;71.78;101611.78;5094094;28;20055;-64
2021/10/16 07:34:29;;;;;;;14.07;8.13;;;;;;;13.85;70.99;101613.34;5092955;28;20063;-62
2021/10/16 07:36:56;;;;;;;19.70;9.00;;;;;;;13.73;70.85;101618.63;5094559;28;20593;-62
2021/10/16 07:39:24;;;;;;;15.07;8.40;;;;;;;13.78;71.00;101626.81;5093306;28;20043;-63
2021/10/16 07:41:51;;;;;;;12.95;7.97;;;;;;;13.75;70.81;101627.44;5077055;28;20163;-61
2021/10/16 07:44:18;;;;;;;18.52;10.88;;;;;;;13.72;70.12;101620.56;5094162;28;20063;-62
2021/10/16 07:46:46;;;;;;;18.85;9.02;;;;;;;14.03;69.27;101617.91;5092057;28;20063;-62
2021/10/16 07:49:13;;;;;;;17.63;9.57;;;;;;;13.95;69.31;101622.22;5073503;28;20053;-63
2021/10/16 07:51:40;;;;;;;15.40;8.73;;;;;;;13.91;68.67;101618.47;5089727;28;20063;-64
2021/10/16 07:54:08;;;;;;;14.75;8.07;;;;;;;14.13;68.51;101620.41;5092770;28;20159;-64
2021/10/16 07:56:35;;;;;;;13.23;7.82;;;;;;;14.19;67.94;101617.19;5094341;28;20067;-65
2021/10/16 07:59:03;;;;;;;17.55;8.30;;;;;;;14.32;67.11;101632.97;5094645;28;20048;-63
2021/10/16 08:01:33;;;;;;;16.77;8.05;;;;;;;14.10;67.20;101621.03;5094516;28;20048;-65
2021/10/16 08:04:00;;;;;;;13.10;7.07;;;;;;;13.58;68.84;101628.91;5094222;28;20055;-64
2021/10/16 08:06:28;;;;;;;16.10;8.70;;;;;;;13.76;68.60;101623.53;5093364;28;20048;-65
2021/10/16 08:08:57;;;;;;;15.77;7.63;;;;;;;14.04;67.33;101628.66;5093353;28;20402;-64
2021/10/16 08:11:43;;;;;;;19.13;8.73;;;;;;;14.28;66.91;101622.81;5094505;28;20052;-65
2021/10/16 08:14:11;;;;;;;12.50;7.22;;;;;;;14.27;65.56;101618.41;5075048;28;20040;-66
2021/10/16 08:16:38;;;;;;;18.10;6.88;;;;;;;14.28;65.76;101618.09;5090796;28;20056;-65
2021/10/16 08:19:06;;;;;;;13.32;6.80;;;;;;;14.37;65.52;101623.69;5090845;28;20036;-65
2021/10/16 08:21:35;;;;;;;16.48;8.68;;;;;;;14.47;65.00;101623.44;5082369;28;20059;-66
2021/10/16 08:24:03;;;;;;;19.75;9.60;;;;;;;14.57;64.51;101623.16;5092622;28;20044;-66
2021/10/16 08:26:30;;;;;;;12.38;6.90;;;;;;;14.80;63.54;101626.72;5091078;28;20083;-64
2021/10/16 08:28:58;;;;;;;14.25;6.97;;;;;;;14.74;62.59;101620.47;5093185;28;20056;-65
2021/10/16 08:31:25;;;;;;;14.82;7.45;;;;;;;14.54;62.85;101618.25;5093140;28;20052;-63
2021/10/16 08:33:54;;;;;;;17.42;6.53;;;;;;;14.43;62.80;101619.66;5092465;28;20052;-62
2021/10/16 08:36:21;;;;;;;12.07;5.95;;;;;;;14.41;62.21;101620.00;5094197;28;20055;-62
2021/10/16 08:38:52;;;;;;;14.00;5.95;;;;;;;14.43;61.70;101619.66;5090473;28;20051;-64
2021/10/16 08:41:19;;;;;;;11.13;6.20;;;;;;;14.26;62.41;101625.09;5086582;28;20063;-66
2021/10/16 08:43:47;;;;;;;11.98;6.22;;;;;;;13.85;63.54;101627.19;5055302;28;20150;-66
2021/10/16 08:46:16;;;;;;;16.20;7.50;;;;;;;13.79;63.87;101625.69;5097077;28;20059;-65
2021/10/16 08:48:43;;;;;;;14.90;7.22;;;;;;;13.84;64.23;101629.16;5098500;28;20043;-65
2021/10/16 08:51:11;;;;;;;16.33;6.63;;;;;;;13.88;65.52;101632.13;5097662;28;20047;-67
2021/10/16 08:53:39;;;;;;;17.58;7.25;;;;;;;13.72;65.74;101625.28;5097869;28;20055;-66
2021/10/16 08:56:06;;;;;;;13.10;7.03;;;;;;;13.60;65.68;101630.56;5097678;28;20052;-66
2021/10/16 08:58:35;;;;;;;13.93;6.95;;;;;;;13.90;64.86;101632.59;5076492;28;20521;-64
2021/10/16 09:01:05;;;;;;;11.75;5.95;;;;;;;13.84;64.47;101634.69;5081120;28;20047;-65
2021/10/16 09:03:50;;;;;;;13.32;5.70;;;;;;;13.86;64.21;101637.94;5095678;28;20048;-66
2021/10/16 09:06:20;;;;;;;17.60;6.55;;;;;;;13.81;64.65;101648.34;5097290;28;20079;-66
2021/10/16 09:08:53;;;;;;;17.05;6.20;;;;;;;13.80;64.33;101650.28;5097698;28;20044;-65
2021/10/16 09:11:20;;;;;;;10.15;6.15;;;;;;;13.55;64.46;101653.63;5096967;28;20620;-66
2021/10/16 09:14:02;;;;;;;12.82;6.18;;;;;;;13.34;65.86;101650.47;5097191;28;20434;-67
2021/10/16 09:16:29;;;;;;;13.07;5.63;;;;;;;13.40;65.69;101652.03;5096990;28;20050;-67
2021/10/16 09:18:57;;;;;;;12.38;6.10;;;;;;;13.74;64.70;101646.00;5097145;28;20051;-66
2021/10/16 09:21:32;;;;;;;11.30;5.47;;;;;;;13.75;63.87;101646.81;5096863;28;20427;-66
2021/10/16 09:24:03;;;;;;;13.18;5.43;;;;;;;13.85;62.80;101646.56;5095337;28;20052;-67
2021/10/16 09:26:31;;;;;;;10.23;5.15;;;;;;;13.71;63.06;101646.63;5096688;28;20361;-66
2021/10/16 09:29:00;;;;;;;16.52;5.43;;;;;;;13.77;63.59;101644.56;5098540;28;20044;-66
2021/10/16 09:31:34;;;;;;;11.35;5.93;;;;;;;14.10;62.69;101648.75;5104829;28;20155;-65
2021/10/16 09:34:02;;;;;;;9.63;5.25;;;;;;;14.22;61.40;101649.00;5096735;28;20055;-67
2021/10/16 09:36:30;;;;;;;16.40;4.57;;;;;;;14.05;61.03;101643.34;5095435;28;20055;-66
2021/10/16 09:38:58;;;;;;;9.32;4.93;;;;;;;14.01;61.46;101651.44;5099097;28;20521;-68
2021/10/16 09:41:26;;;;;;;10.73;4.28;;;;;;;14.20;60.74;101641.00;5097731;28;20047;-66
2021/10/16 09:43:53;;;;;;;10.85;5.05;;;;;;;14.35;60.45;101648.13;5095919;28;20051;-63
2021/10/16 09:46:22;;;;;;;9.75;5.47;;;;;;;14.44;59.93;101651.78;5094833;28;20410;-63
2021/10/16 09:48:50;;;;;;;10.40;5.68;;;;;;;14.52;59.90;101648.25;5096619;28;20078;-65
2021/10/16 09:51:22;;;;;;;12.82;6.57;;;;;;;14.58;59.63;101647.81;5096630;28;20491;-63
2021/10/16 09:53:51;;;;;;;16.55;6.72;;;;;;;14.91;59.10;101648.28;5096556;28;20048;-63
2021/10/16 09:56:19;;;;;;;14.20;5.80;;;;;;;14.86;59.75;101647.59;5094115;28;20519;-62
2021/10/16 09:58:49;;;;;;;12.65;7.00;;;;;;;14.84;58.60;101639.59;5091259;28;20036;-61
2021/10/16 10:01:18;;;;;;;15.57;6.80;;;;;;;14.78;59.21;101648.41;5093913;28;20451;-63
2021/10/16 10:03:46;;;;;;;12.27;5.63;;;;;;;14.84;61.18;101638.78;5094848;28;20055;-63
2021/10/16 10:06:16;;;;;;;14.18;6.25;;;;;;;15.00;59.96;101649.16;5102036;28;20062;-64
2021/10/16 10:08:43;;;;;;;13.65;5.68;;;;;;;14.99;58.62;101636.44;5116061;28;20457;-61
2021/10/16 10:11:12;;;;;;;11.38;5.53;;;;;;;14.87;57.94;101638.16;5099531;28;20048;-62
2021/10/16 10:13:40;;;;;;;12.18;5.97;;;;;;;14.91;58.96;101637.19;5072879;28;20058;-63
2021/10/16 10:16:08;;;;;;;10.20;5.32;;;;;;;14.87;58.44;101636.19;5109017;28;20047;-63
2021/10/16 10:19:00;;;;;;;13.65;5.95;;;;;;;14.90;59.23;101631.97;5076094;28;20405;-62
2021/10/16 10:21:35;;;;;;;12.05;6.07;;;;;;;15.22;57.58;101635.19;5065107;28;20406;-64
2021/10/16 10:24:05;;;;;;;13.68;6.03;;;;;;;15.30;57.47;101630.81;5096267;28;20043;-64
2021/10/16 10:26:41;;;;;;;12.25;5.82;;;;;;;15.49;56.99;101629.41;5095013;28;20056;-63
2021/10/16 10:29:10;;;;;;;9.07;4.50;;;;;;;15.76;56.03;101634.66;5096131;28;20048;-65
2021/10/16 10:31:59;;;;;;;11.15;4.40;;;;;;;15.87;54.54;101635.16;5096375;28;20505;-64
2021/10/16 10:34:30;;;;;;;10.45;4.70;;;;;;;15.61;54.16;101632.38;5101356;28;20056;-64
2021/10/16 10:37:01;;;;;;;7.80;4.05;;;;;;;15.82;54.24;101631.72;5115357;28;20058;-67
2021/10/16 10:39:34;;;;;;;10.13;4.82;;;;;;;15.59;53.46;101636.59;5099814;28;20036;-65
2021/10/16 10:42:25;;;;;;;10.00;4.40;;;;;;;15.86;53.77;101633.53;5088281;28;20036;-64
2021/10/16 10:44:54;;;;;;;10.15;3.67;;;;;;;16.07;52.67;101628.13;5094409;28;20052;-66
2021/10/16 10:47:25;;;;;;;7.47;3.85;;;;;;;16.20;51.75;101632.69;5089559;28;20048;-65
2021/10/16 10:49:54;;;;;;;7.55;3.33;;;;;;;16.36;51.39;101628.25;5095292;28;20048;-64
2021/10/16 10:52:23;;;;;;;6.22;2.67;;;;;;;16.42;50.72;101635.28;5086628;28;20052;-64
2021/10/16 10:55:08;;;;;;;8.18;2.90;;;;;;;16.40;50.43;101623.66;5095590;28;20418;-64
2021/10/16 10:57:41;;;;;;;8.48;2.50;;;;;;;16.36;49.97;101620.72;5090925;28;20079;-65
2021/10/16 11:00:11;;;;;;;9.68;2.58;;;;;;;16.50;50.40;101615.81;5094817;28;20420;-65
2021/10/16 11:02:39;;;;;;;8.30;3.05;;;;;;;16.25;49.48;101615.84;5080430;28;20047;-66
2021/10/16 11:05:31;;;;;;;11.52;3.30;;;;;;;16.34;50.21;101620.25;5089681;28;20513;-65
2021/10/16 11:08:14;;;;;;;9.55;3.00;;;;;;;16.64;49.87;101610.06;5088339;28;20421;-66
2021/10/16 11:10:43;;;;;;;7.10;3.35;;;;;;;16.79;49.01;101607.53;5093856;28;20048;-70
2021/10/16 11:13:12;;;;;;;8.75;3.28;;;;;;;16.74;49.27;101618.03;5093430;28;20407;-67
2021/10/16 11:15:40;;;;;;;12.63;3.78;;;;;;;16.79;48.73;101601.97;5097424;28;20052;-68
2021/10/16 11:18:12;;;;;;;9.80;3.58;;;;;;;16.92;48.87;101602.06;5091904;28;20047;-70
2021/10/16 11:20:40;;;;;;;7.30;2.88;;;;;;;17.05;48.51;101607.41;5094900;28;20055;-68
2021/10/16 11:23:21;;;;;;;7.45;2.72;;;;;;;17.30;47.76;101606.47;5076589;28;20194;-67
2021/10/16 11:26:20;;;;;;;8.65;3.70;;;;;;;16.54;48.25;101613.19;5092533;28;20048;-65
2021/10/16 11:28:48;;;;;;;7.53;3.55;;;;;;;16.12;48.60;101614.06;5070800;28;20215;-65
2021/10/16 11:31:15;;;;;;;7.05;3.40;;;;;;;16.45;48.47;101617.94;5093631;28;20059;-65